Time;durP1;ratioP1;P1;durP2;ratioP2;P2;SDS_P1;SDS_P2;PMS_P1;PMS_P2;Temp;Humidity;BMP_temperature;BMP_pressure;BME280_temperature;BME280_humidity;BME280_pressure;Samples;Min_cycle;Max_cycle;Signal;HPM_P1;HPM_P2
2023/06/19 00:02:47;;;;;;;;;7.00;7.00;;;;;21.80;83.97;-12211.00;5175802;22;46471;-88
2023/06/19 00:05:13;;;;;;;;;5.67;5.67;;;;;22.44;84.05;-15457.16;4929933;28;45517;-88
2023/06/19 00:07:42;;;;;;;;;6.00;6.00;;;;;22.23;83.91;-15769.38;4957333;28;45823;-88
2023/06/19 00:10:07;;;;;;;;;6.00;6.00;;;;;22.42;83.92;-13285.84;4910958;28;45399;-87
2023/06/19 00:12:33;;;;;;;;;5.00;5.00;;;;;21.65;84.06;-8865.00;4896678;28;47939;-88
2023/06/19 00:14:58;;;;;;;;;7.00;6.00;;;;;21.86;83.68;-9149.16;4880269;28;45378;-88
2023/06/19 00:17:59;;;;;;;;;6.33;6.00;;;;;22.57;84.09;-11944.59;4880577;28;46062;-87
2023/06/19 00:21:05;;;;;;;;;6.00;6.00;;;;;21.40;83.98;-11480.78;4896863;28;45918;-85
2023/06/19 00:23:30;;;;;;;;;6.00;6.00;;;;;21.88;84.31;-9912.03;4894839;28;45744;-88
2023/06/19 00:26:00;;;;;;;;;6.67;5.67;;;;;21.96;84.25;-9411.41;4882482;29;45556;-88
2023/06/19 00:28:50;;;;;;;;;7.33;5.00;;;;;22.49;84.27;-6829.53;4903546;28;45585;-88
2023/06/19 00:31:37;;;;;;;;;7.33;5.00;;;;;22.50;84.36;-10076.84;4901510;28;45608;-88
2023/06/19 00:34:05;;;;;;;;;9.00;6.67;;;;;21.85;83.47;-12509.66;4881958;28;46803;-88
2023/06/19 00:36:56;;;;;;;;;7.00;7.00;;;;;22.47;84.39;-5393.91;4939491;28;45873;-88
2023/06/19 00:39:33;;;;;;;;;6.00;6.00;;;;;21.83;84.01;-11449.38;4863065;29;45557;-88
2023/06/19 00:45:20;;;;;;;;;6.67;6.67;;;;;21.82;83.75;-15361.00;4878100;28;46100;-87
2023/06/19 00:47:46;;;;;;;;;5.33;5.33;;;;;22.38;83.44;-17559.63;4978442;23;45645;-88
2023/06/19 00:50:12;;;;;;;;;6.00;6.00;;;;;22.45;83.85;-14027.72;4877512;28;45845;-86
2023/06/19 00:52:38;;;;;;;;;6.00;6.00;;;;;21.89;83.19;-17964.75;4874387;28;45729;-89
2023/06/19 00:55:05;;;;;;;;;9.00;8.33;;;;;22.40;83.61;-19101.53;4976603;23;46857;-88
2023/06/19 00:57:31;;;;;;;;;9.00;7.00;;;;;21.93;83.24;-17649.59;4898653;28;45563;-87
2023/06/19 01:00:40;;;;;;;;;10.00;8.67;;;;;22.41;83.27;-16845.91;4913701;28;45722;-88
2023/06/19 01:03:05;;;;;;;;;7.67;7.00;;;;;22.35;83.52;-15690.03;4907389;28;45382;-87
2023/06/19 01:05:33;;;;;;;;;9.67;7.00;;;;;21.85;83.72;-13139.84;4955151;28;45536;-87
2023/06/19 01:08:00;;;;;;;;;7.00;7.00;;;;;22.16;83.59;-12311.06;4921385;28;45860;-87
2023/06/19 01:10:32;;;;;;;;;9.00;8.00;;;;;22.07;84.19;-7490.22;4913684;28;45544;-87
2023/06/19 01:13:22;;;;;;;;;9.33;7.00;;;;;21.70;83.66;-12054.09;5180384;23;45694;-87
2023/06/19 01:15:51;;;;;;;;;8.33;7.33;;;;;21.24;83.76;-14915.69;4887243;28;47464;-87
2023/06/19 01:18:17;;;;;;;;;7.00;7.00;;;;;22.22;84.06;-9926.09;4901054;28;45555;-87
2023/06/19 01:20:51;;;;;;;;;8.33;6.00;;;;;21.72;84.21;-7258.31;4908145;28;45833;-86
2023/06/19 01:23:19;;;;;;;;;6.67;6.67;;;;;21.69;83.96;-6759.22;4921386;28;45566;-87
2023/06/19 01:25:45;;;;;;;;;7.00;7.00;;;;;21.66;84.23;-4852.59;4976235;28;48225;-87
2023/06/19 01:30:43;;;;;;;;;10.67;10.67;;;;;21.89;84.53;2033.09;4957006;22;67969;-86
2023/06/19 01:33:17;;;;;;;;;6.33;6.33;;;;;22.08;83.80;-3730.16;4941242;28;45534;-87
2023/06/19 01:36:07;;;;;;;;;7.00;7.00;;;;;21.27;84.11;-118.72;4925108;28;46412;-86
2023/06/19 01:38:36;;;;;;;;;7.33;6.67;;;;;21.37;84.57;-1296.91;4944769;28;45350;-87
2023/06/19 01:41:04;;;;;;;;;7.33;7.33;;;;;21.48;84.38;-6248.72;4933758;28;45529;-86
2023/06/19 01:43:31;;;;;;;;;8.00;8.00;;;;;21.45;83.87;-8348.91;4934330;28;45687;-87
2023/06/19 01:45:58;;;;;;;;;3.67;3.67;;;;;21.34;84.18;-9574.22;4933776;28;45478;-87
2023/06/19 01:49:13;;;;;;;;;9.00;9.00;;;;;22.19;84.25;-169.53;4933637;28;45372;-87
2023/06/19 01:51:39;;;;;;;;;9.00;4.33;;;;;22.20;84.40;-5448.56;4922507;28;45741;-87
2023/06/19 01:54:04;;;;;;;;;7.33;7.33;;;;;21.48;83.37;-12330.41;4932726;28;45923;-87
2023/06/19 01:56:30;;;;;;;;;9.00;9.00;;;;;21.35;83.95;-7176.84;4936024;28;46091;-86
2023/06/19 01:58:55;;;;;;;;;10.00;9.00;;;;;21.60;84.10;-3272.88;4933305;28;45403;-86
2023/06/19 02:01:21;;;;;;;;;9.00;8.00;;;;;21.38;84.17;-5353.50;4933356;28;45494;-86
2023/06/19 02:06:21;;;;;;;;;12.33;9.00;;;;;21.55;84.46;-5433.25;4939151;23;74068;-86
2023/06/19 02:08:46;;;;;;;;;8.00;8.00;;;;;22.02;83.52;-5976.38;4929429;28;45528;-86
2023/06/19 02:11:12;;;;;;;;;11.67;10.00;;;;;21.06;84.01;-5542.47;4933553;28;45670;-86
2023/06/19 02:13:37;;;;;;;;;8.67;8.67;;;;;21.94;84.04;-2355.44;4947382;28;45480;-86
2023/06/19 02:16:02;;;;;;;;;10.33;8.33;;;;;21.17;83.80;-1828.50;4932157;28;48225;-86
2023/06/19 02:18:28;;;;;;;;;9.67;9.00;;;;;21.79;83.94;-3526.53;4917616;28;45438;-86
2023/06/19 02:20:53;;;;;;;;;9.00;9.00;;;;;21.89;83.48;-8220.38;4930417;28;45523;-85
2023/06/19 02:23:18;;;;;;;;;10.00;8.33;;;;;21.64;84.45;-2802.53;4932450;28;45574;-86
2023/06/19 02:25:44;;;;;;;;;9.00;9.00;;;;;21.50;83.80;-9338.41;4915391;28;47418;-86
2023/06/19 02:28:09;;;;;;;;;9.33;8.33;;;;;21.65;84.57;5644.34;4933604;28;45562;-86
2023/06/19 02:30:34;;;;;;;;;11.67;10.67;;;;;21.17;84.15;-4027.97;4978731;28;45512;-86
2023/06/19 02:33:00;;;;;;;;;12.00;9.00;;;;;21.02;84.17;-1250.53;4929070;28;45473;-86
2023/06/19 02:35:25;;;;;;;;;13.33;11.33;;;;;21.14;84.16;-4798.59;4922108;28;45442;-86
2023/06/19 02:37:57;;;;;;;;;9.33;9.33;;;;;21.37;83.94;-6939.56;4947149;23;45501;-86
2023/06/19 02:40:23;;;;;;;;;11.67;11.67;;;;;20.86;83.16;-11321.13;4913285;28;45614;-86
2023/06/19 02:42:48;;;;;;;;;12.33;9.00;;;;;20.96;83.71;-11227.53;4914303;28;45415;-86
2023/06/19 02:45:13;;;;;;;;;13.67;10.33;;;;;21.69;83.52;-12544.28;4897716;28;46678;-85
2023/06/19 02:47:57;;;;;;;;;10.67;10.67;;;;;21.63;83.71;-9054.78;4900638;28;45816;-86
2023/06/19 02:50:22;;;;;;;;;9.33;8.33;;;;;21.49;83.74;-10451.19;4914265;28;45625;-86
2023/06/19 02:52:48;;;;;;;;;11.33;11.00;;;;;21.54;83.94;-11830.44;4909993;28;45588;-85
2023/06/19 02:55:13;;;;;;;;;12.33;10.67;;;;;21.47;83.58;-10501.06;4893281;28;46644;-84
2023/06/19 02:57:39;;;;;;;;;15.00;11.67;;;;;21.16;83.45;-10508.06;4919495;23;47156;-86
2023/06/19 03:00:09;;;;;;;;;11.33;10.33;;;;;20.79;83.42;-9221.03;4913764;28;46012;-86
2023/06/19 03:03:17;;;;;;;;;9.00;9.00;;;;;21.69;84.01;-8941.88;4907099;28;45566;-86
2023/06/19 03:05:43;;;;;;;;;11.00;11.00;;;;;21.48;83.83;-7868.97;4905834;28;47072;-85
2023/06/19 03:08:09;;;;;;;;;10.00;10.00;;;;;20.99;83.52;-14674.25;4903805;28;45712;-86
2023/06/19 03:13:14;;;;;;;;;10.67;10.00;;;;;21.71;83.12;-15672.31;4950673;23;58317;-86
2023/06/19 03:15:39;;;;;;;;;11.00;10.00;;;;;21.44;83.43;-11230.91;4942305;28;46481;-86
2023/06/19 03:18:07;;;;;;;;;11.33;10.67;;;;;21.27;83.79;-9568.25;4935981;28;45533;-86
2023/06/19 03:23:38;;;;;;;;;10.67;9.00;;;;;21.61;83.23;-15462.25;4924086;22;45671;-84
2023/06/19 03:26:04;;;;;;;;;13.00;12.33;;;;;21.71;83.29;-14465.78;4915494;28;45827;-85
2023/06/19 03:31:35;;;;;;;;;11.33;10.33;;;;;21.64;83.52;-15015.19;5079952;22;45644;-84
2023/06/19 03:34:00;;;;;;;;;13.67;12.67;;;;;21.69;83.27;-14939.72;4908871;28;45595;-85
2023/06/19 03:36:26;;;;;;;;;8.33;8.33;;;;;20.81;83.55;-14892.00;4912776;28;45434;-86
2023/06/19 03:38:51;;;;;;;;;12.67;12.00;;;;;21.29;83.32;-12643.91;4900282;28;45396;-86
2023/06/19 03:41:30;;;;;;;;;14.00;9.67;;;;;21.19;83.45;-13945.94;4910017;28;45490;-85
2023/06/19 03:43:55;;;;;;;;;9.00;9.00;;;;;21.25;83.39;-12838.16;4907225;28;45570;-85
2023/06/19 03:46:21;;;;;;;;;12.33;11.67;;;;;21.46;83.33;-13987.28;4906407;28;46316;-85
2023/06/19 03:48:46;;;;;;;;;9.67;9.67;;;;;21.42;83.05;-13667.97;4898006;28;45889;-86
2023/06/19 03:51:11;;;;;;;;;12.33;11.00;;;;;21.63;83.58;-13355.09;4896154;28;45569;-85
2023/06/19 03:53:37;;;;;;;;;11.00;11.00;;;;;21.19;83.22;-11899.59;4895733;28;45574;-84
2023/06/19 03:56:02;;;;;;;;;15.33;12.67;;;;;21.00;83.38;-9634.09;4896198;28;46354;-84
2023/06/19 03:58:27;;;;;;;;;11.00;11.00;;;;;21.59;83.44;-8342.03;4891916;28;45791;-86
2023/06/19 04:00:53;;;;;;;;;11.67;11.00;;;;;21.11;83.67;-3666.28;4898633;28;45350;-85
2023/06/19 04:06:41;;;;;;;;;11.67;11.67;;;;;21.20;83.82;3494.81;4895827;28;45883;-85
2023/06/19 04:09:06;;;;;;;;;10.67;9.00;;;;;21.08;84.54;7981.19;4889034;28;45413;-85
2023/06/19 04:12:06;;;;;;;;;10.33;10.33;;;;;21.59;84.23;14004.38;4896669;28;45437;-85
2023/06/19 04:14:32;;;;;;;;;15.67;12.67;;;;;21.06;84.47;7446.09;4889411;28;45584;-85
2023/06/19 04:16:57;;;;;;;;;7.67;6.67;;;;;21.05;84.31;5730.94;4877936;28;46183;-85
2023/06/19 04:19:22;;;;;;;;;16.33;13.00;;;;;21.11;84.22;7552.69;4895027;28;45519;-85
2023/06/19 04:22:03;;;;;;;;;8.00;7.00;;;;;21.23;84.48;11936.84;4895049;28;46881;-85
2023/06/19 04:24:29;;;;;;;;;15.67;11.67;;;;;21.39;84.84;17818.44;4892867;28;45665;-85
2023/06/19 04:26:54;;;;;;;;;15.00;13.67;;;;;21.68;84.77;15514.78;4893413;28;46491;-86
2023/06/19 04:29:19;;;;;;;;;15.00;15.00;;;;;20.92;84.40;11836.63;4895345;28;45523;-85
2023/06/19 04:31:48;;;;;;;;;15.67;11.67;;;;;21.71;84.71;9482.19;4896471;28;45437;-85
2023/06/19 04:34:20;;;;;;;;;13.33;13.33;;;;;21.40;84.22;8884.91;4876001;28;45885;-85
2023/06/19 04:36:47;;;;;;;;;11.67;11.67;;;;;21.38;84.40;6434.69;4895994;28;46610;-86
2023/06/19 04:39:12;;;;;;;;;11.33;10.00;;;;;21.17;84.48;10369.16;4893441;28;45484;-86
2023/06/19 04:41:38;;;;;;;;;16.00;13.33;;;;;21.15;84.06;9891.84;4885735;28;45655;-86
2023/06/19 04:44:05;;;;;;;;;13.00;11.00;;;;;21.78;83.56;-3005.91;4893111;28;45405;-86
2023/06/19 04:46:31;;;;;;;;;8.33;8.33;;;;;21.46;83.83;-4458.69;4880211;28;47381;-85
2023/06/19 04:48:56;;;;;;;;;14.67;14.33;;;;;21.80;83.68;-6717.56;4892310;28;45743;-85
2023/06/19 04:51:26;;;;;;;;;15.33;12.33;;;;;21.28;83.65;-11297.38;4890986;28;45732;-85
2023/06/19 04:53:51;;;;;;;;;13.00;11.00;;;;;21.65;83.67;-6901.53;4877244;28;46359;-85
2023/06/19 04:56:17;;;;;;;;;17.00;14.33;;;;;21.21;84.05;-2166.47;4886644;28;45521;-85
2023/06/19 04:58:47;;;;;;;;;12.00;10.00;;;;;21.63;84.15;2028.25;4893123;28;45507;-86
2023/06/19 05:01:13;;;;;;;;;16.00;12.33;;;;;21.12;82.82;-14358.03;4894891;28;45767;-85
2023/06/19 05:03:39;;;;;;;;;14.67;13.33;;;;;21.77;83.61;-13876.56;4894665;28;45488;-86
2023/06/19 05:06:05;;;;;;;;;15.33;13.67;;;;;20.95;83.48;-10542.50;4892759;28;46674;-85
2023/06/19 05:08:30;;;;;;;;;13.00;12.67;;;;;21.36;83.75;-6013.28;4893570;28;45471;-86
2023/06/19 05:10:57;;;;;;;;;11.00;11.00;;;;;21.17;83.74;-12844.91;4895206;28;45384;-85
2023/06/19 05:13:23;;;;;;;;;12.00;12.00;;;;;21.85;83.58;-12596.69;4894655;28;45471;-85
2023/06/19 05:15:48;;;;;;;;;15.33;14.33;;;;;21.64;83.64;-10932.75;4874122;28;48677;-85
2023/06/19 05:18:20;;;;;;;;;17.33;14.67;;;;;21.87;83.67;-8383.88;4893778;28;45544;-85
2023/06/19 05:20:45;;;;;;;;;14.00;13.67;;;;;21.57;83.05;-14850.47;4892853;28;45532;-86
2023/06/19 05:23:11;;;;;;;;;13.00;12.33;;;;;21.25;83.12;-18231.28;4892625;28;45853;-85
2023/06/19 05:25:36;;;;;;;;;14.00;12.67;;;;;21.25;83.45;-15826.50;4888701;28;46057;-86
2023/06/19 05:28:02;;;;;;;;;15.00;13.00;;;;;21.95;83.32;-17492.03;4890195;28;45840;-86
2023/06/19 05:30:27;;;;;;;;;14.33;14.33;;;;;21.34;83.20;-17507.34;4891236;28;45805;-86
2023/06/19 05:32:52;;;;;;;;;15.33;14.00;;;;;21.65;83.45;-17137.88;4896933;28;45473;-88
2023/06/19 05:35:18;;;;;;;;;15.00;12.33;;;;;22.04;82.30;-19794.75;4895395;28;45459;-83
2023/06/19 05:37:43;;;;;;;;;15.00;12.67;;;;;21.78;82.33;-19788.13;4911916;28;45533;-87
2023/06/19 05:40:09;;;;;;;;;14.00;13.67;;;;;22.04;82.04;-19794.75;4889945;28;46436;-89
2023/06/19 05:42:38;;;;;;;;;14.00;14.00;;;;;21.77;82.68;-19787.84;4900192;28;45599;-86
2023/06/19 05:45:04;;;;;;;;;15.00;14.67;;;;;22.12;82.55;-19796.88;4901752;28;45651;-86
2023/06/19 05:47:30;;;;;;;;;13.00;12.33;;;;;22.10;82.03;-19796.50;4887859;29;45595;-86
2023/06/19 05:49:56;;;;;;;;;15.67;12.67;;;;;22.14;81.54;-19797.41;4875589;28;45528;-85
2023/06/19 05:52:21;;;;;;;;;15.33;14.00;;;;;22.20;82.57;-19798.88;4890214;28;45564;-84
2023/06/19 05:54:47;;;;;;;;;13.00;13.00;;;;;22.15;81.89;-19797.69;4901021;28;46077;-85
2023/06/19 05:57:14;;;;;;;;;14.33;14.33;;;;;22.30;81.85;-19801.56;4891111;28;46600;-90
2023/06/19 05:59:41;;;;;;;;;16.67;14.33;;;;;22.39;82.32;-19803.94;4874429;28;45532;-87
2023/06/19 06:02:07;;;;;;;;;16.33;14.33;;;;;22.45;82.12;-19805.53;4893718;28;45856;-90
2023/06/19 06:04:34;;;;;;;;;12.67;12.67;;;;;22.56;80.92;-19808.31;4893337;28;47346;-85
2023/06/19 06:06:59;;;;;;;;;16.50;14.50;;;;;22.38;81.25;-19803.53;4887511;28;45562;-86
2023/06/19 06:09:25;;;;;;;;;13.67;12.33;;;;;22.63;80.98;-19810.06;4906235;28;45847;-84
2023/06/19 06:11:50;;;;;;;;;14.00;13.67;;;;;22.71;80.15;-19812.19;4892918;28;45492;-83
2023/06/19 06:14:15;;;;;;;;;16.00;14.00;;;;;;;;4897934;28;59237;-82
2023/06/19 06:16:40;;;;;;;;;18.33;16.67;;;;;22.55;80.10;-19808.06;4888122;28;45577;-82
2023/06/19 06:19:06;;;;;;;;;21.00;20.00;;;;;22.43;81.01;-19804.88;4887762;28;45428;-82
2023/06/19 06:21:31;;;;;;;;;12.00;10.67;;;;;22.77;79.77;-19813.78;4889787;29;45385;-81
2023/06/19 06:23:57;;;;;;;;;13.33;12.00;;;;;22.79;79.53;-19814.19;4888149;28;47113;-81
2023/06/19 06:26:22;;;;;;;;;16.67;14.67;;;;;22.83;80.07;-19815.25;4876549;28;45434;-82
2023/06/19 06:28:48;;;;;;;;;14.33;14.33;;;;;22.84;78.94;-19815.50;4898437;28;45672;-82
2023/06/19 06:31:13;;;;;;;;;14.67;12.67;;;;;22.77;80.36;-19813.78;4894998;28;46214;-82
2023/06/19 06:33:39;;;;;;;;;15.33;13.33;;;;;22.74;79.36;-19813.13;4898409;28;46739;-83
2023/06/19 06:36:04;;;;;;;;;14.00;14.00;;;;;22.94;78.68;-19818.16;4879961;28;45607;-80
2023/06/19 06:38:30;;;;;;;;;16.33;13.67;;;;;22.91;78.49;-19817.38;4888428;28;45724;-80
2023/06/19 06:40:55;;;;;;;;;18.33;14.67;;;;;22.34;78.27;-19802.75;4890981;28;45456;-80
2023/06/19 06:43:21;;;;;;;;;18.00;15.33;;;;;22.37;78.25;-19803.28;4897270;28;45552;-79
2023/06/19 06:45:46;;;;;;;;;12.33;11.33;;;;;23.13;78.60;-19823.09;4888723;28;45977;-80
2023/06/19 06:48:11;;;;;;;;;13.67;13.00;;;;;23.17;78.15;-19824.16;4895820;28;45623;-79
2023/06/19 06:50:37;;;;;;;;;11.00;9.00;;;;;23.16;77.50;-19823.88;4897186;28;45825;-82
2023/06/19 06:53:02;;;;;;;;;22.00;18.33;;;;;23.27;77.96;-19826.81;4891727;28;45607;-82
2023/06/19 06:55:28;;;;;;;;;13.67;12.00;;;;;23.38;78.28;-19829.59;4893838;29;45559;-80
2023/06/19 06:57:53;;;;;;;;;13.00;12.00;;;;;23.52;78.13;-19833.31;4895172;28;45737;-81
2023/06/19 07:00:19;;;;;;;;;16.33;13.67;;;;;23.55;76.97;-19834.09;4891625;28;45475;-81
2023/06/19 07:02:47;;;;;;;;;15.33;12.67;;;;;23.77;76.28;-19839.69;4907288;28;45524;-81
2023/06/19 07:05:12;;;;;;;;;10.33;8.00;;;;;23.82;74.56;-19841.00;4897188;28;45563;-80
2023/06/19 07:07:38;;;;;;;;;11.33;10.33;;;;;23.90;75.08;-19843.00;4896757;28;45533;-81
2023/06/19 07:10:03;;;;;;;;;10.67;10.00;;;;;24.11;74.69;-19848.56;4879426;28;45411;-80
2023/06/19 07:12:29;;;;;;;;;11.33;10.33;;;;;24.20;73.64;-19850.94;4953188;23;46306;-81
2023/06/19 07:14:54;;;;;;;;;13.67;13.67;;;;;24.27;73.63;-19852.53;4935528;28;45640;-80
2023/06/19 07:17:20;;;;;;;;;12.00;10.67;;;;;24.21;73.85;-19851.09;4926457;28;45484;-80
2023/06/19 07:19:45;;;;;;;;;12.33;11.33;;;;;24.15;72.95;-19849.50;4928443;28;45926;-80
2023/06/19 07:22:11;;;;;;;;;16.00;12.33;;;;;24.20;73.06;-19850.94;4935309;28;45411;-81
2023/06/19 07:24:36;;;;;;;;;15.00;15.00;;;;;24.32;72.61;-19854.00;4935578;28;45451;-81
2023/06/19 07:27:02;;;;;;;;;13.67;11.67;;;;;24.46;72.64;-19857.44;4918281;28;45824;-81
2023/06/19 07:29:27;;;;;;;;;14.33;13.67;;;;;24.36;71.98;-19855.06;5058912;23;46091;-81
2023/06/19 07:31:53;;;;;;;;;17.67;14.33;;;;;24.35;72.13;-19854.66;4916344;28;45808;-81
2023/06/19 07:34:18;;;;;;;;;16.00;13.00;;;;;24.48;72.49;-19858.13;4900216;28;45519;-80
2023/06/19 07:36:43;;;;;;;;;13.67;13.67;;;;;24.54;72.06;-19859.72;4917064;28;45442;-81
2023/06/19 07:39:09;;;;;;;;;13.67;12.67;;;;;24.55;71.90;-19859.97;4917601;28;45761;-80
2023/06/19 07:41:35;;;;;;;;;13.00;13.00;;;;;24.58;72.68;-19860.78;4914792;28;46463;-80
2023/06/19 07:44:00;;;;;;;;;14.67;13.00;;;;;24.48;72.19;-19858.13;4916204;28;45443;-80
2023/06/19 07:46:26;;;;;;;;;15.67;13.33;;;;;24.54;71.71;-19859.59;4906028;28;45392;-81
2023/06/19 07:48:51;;;;;;;;;16.00;15.00;;;;;24.47;72.03;-19857.84;4913299;28;45888;-80
2023/06/19 07:51:16;;;;;;;;;14.00;12.67;;;;;24.59;71.35;-19861.03;4911799;28;49747;-79
2023/06/19 07:53:43;;;;;;;;;18.67;16.00;;;;;24.69;71.40;-19863.56;4904933;28;45544;-80
2023/06/19 07:56:09;;;;;;;;;16.00;13.67;;;;;24.69;70.68;-19863.56;4915965;28;45487;-80
2023/06/19 07:58:34;;;;;;;;;15.67;14.67;;;;;24.77;70.55;-19865.69;4916689;28;45460;-81
2023/06/19 08:01:00;;;;;;;;;14.33;14.33;;;;;24.59;70.73;-19860.91;4914347;28;47227;-81
2023/06/19 08:03:25;;;;;;;;;17.67;14.33;;;;;24.91;71.22;-19869.13;4909503;28;45536;-81
2023/06/19 08:05:50;;;;;;;;;14.33;14.33;;;;;24.97;71.07;-19870.72;4916286;28;45931;-81
2023/06/19 08:08:16;;;;;;;;;13.67;13.33;;;;;25.00;70.95;-19871.63;4917883;28;45479;-80
2023/06/19 08:10:41;;;;;;;;;16.33;16.33;;;;;25.09;71.12;-19873.75;4914689;28;45528;-80
2023/06/19 08:13:07;;;;;;;;;15.67;15.67;;;;;25.17;70.41;-19875.88;4906230;28;45405;-80
2023/06/19 08:15:32;;;;;;;;;16.00;14.67;;;;;25.17;69.69;-19875.88;4915527;28;45486;-81
2023/06/19 08:17:58;;;;;;;;;15.67;14.00;;;;;25.21;69.53;-19876.94;4902589;28;45506;-81
2023/06/19 08:20:23;;;;;;;;;17.00;16.00;;;;;25.18;69.80;-19876.16;4904335;28;46036;-81
2023/06/19 08:22:48;;;;;;;;;21.33;19.00;;;;;25.25;68.53;-19878.00;4915000;28;45455;-80
2023/06/19 08:25:14;;;;;;;;;23.00;19.33;;;;;25.24;69.25;-19877.75;4915667;28;46032;-81
2023/06/19 08:27:39;;;;;;;;;17.00;16.00;;;;;25.15;69.27;-19875.47;4948920;28;45502;-80
2023/06/19 08:30:05;;;;;;;;;17.00;15.00;;;;;25.32;69.15;-19879.84;4910187;28;46173;-81
2023/06/19 08:32:31;;;;;;;;;17.33;14.67;;;;;25.52;68.23;-19884.88;4914564;28;45442;-80
2023/06/19 08:34:56;;;;;;;;;19.00;14.33;;;;;25.66;67.00;-19888.72;4904263;28;45413;-80
2023/06/19 08:37:21;;;;;;;;;11.33;11.33;;;;;25.76;65.96;-19891.25;4911835;28;45491;-81
2023/06/19 08:39:47;;;;;;;;;16.33;13.33;;;;;25.85;65.49;-19893.50;4913951;28;46214;-81
2023/06/19 08:42:13;;;;;;;;;10.67;10.67;;;;;26.18;63.27;-19902.09;4911471;28;45496;-80
2023/06/19 08:44:38;;;;;;;;;13.33;12.33;;;;;26.30;64.49;-19905.25;4912321;28;46813;-81
2023/06/19 08:47:04;;;;;;;;;10.00;8.00;;;;;26.46;62.69;-19909.22;4915460;28;45328;-80
2023/06/19 08:49:33;;;;;;;;;10.00;7.00;;;;;26.36;61.82;-19906.59;4913724;28;47322;-81
2023/06/19 08:51:58;;;;;;;;;11.67;11.00;;;;;26.69;61.78;-19915.19;4914519;28;46696;-80
2023/06/19 08:54:25;;;;;;;;;11.00;11.00;;;;;26.67;61.37;-19914.66;4889377;28;45513;-80
2023/06/19 08:56:53;;;;;;;;;12.67;12.33;;;;;26.72;60.81;-19915.97;4915380;28;45494;-81
2023/06/19 08:59:19;;;;;;;;;12.00;11.67;;;;;27.12;60.89;-19926.41;4914499;28;46509;-80
2023/06/19 09:01:52;;;;;;;;;13.00;11.33;;;;;27.19;59.82;-19928.00;4911980;28;45525;-80
2023/06/19 09:04:26;;;;;;;;;12.33;11.00;;;;;27.38;62.09;-19932.88;4909462;28;45529;-81
2023/06/19 09:06:58;;;;;;;;;6.67;6.67;;;;;27.46;58.42;-19935.00;4915560;28;45773;-80
2023/06/19 09:09:26;;;;;;;;;9.00;7.33;;;;;27.53;58.37;-19936.97;4915880;28;45852;-81
2023/06/19 09:12:10;;;;;;;;;8.67;8.67;;;;;27.40;58.54;-19933.53;4916552;28;45589;-81
2023/06/19 09:14:39;;;;;;;;;8.00;8.00;;;;;27.43;57.29;-19934.34;4915352;28;46081;-81
2023/06/19 09:17:06;;;;;;;;;5.67;5.67;;;;;27.31;57.67;-19931.16;4915388;28;45524;-81
2023/06/19 09:19:35;;;;;;;;;6.67;6.67;;;;;27.14;58.15;-19926.81;4914026;28;45439;-80
2023/06/19 09:22:02;;;;;;;;;8.00;8.00;;;;;27.04;58.46;-19924.16;4910777;28;45502;-80
2023/06/19 09:24:41;;;;;;;;;9.00;9.00;;;;;26.79;59.47;-19917.81;4905078;28;45484;-80
2023/06/19 09:27:18;;;;;;;;;7.67;7.33;;;;;26.93;58.37;-19921.38;4910478;28;45442;-80
2023/06/19 09:29:47;;;;;;;;;8.67;6.33;;;;;27.42;59.06;-19933.94;4910021;28;46616;-81
2023/06/19 09:32:20;;;;;;;;;8.00;7.67;;;;;27.86;57.71;-19945.28;4906759;28;46967;-81
2023/06/19 09:34:46;;;;;;;;;11.00;8.00;;;;;28.14;56.23;-19952.69;4909731;28;45499;-81
2023/06/19 09:37:12;;;;;;;;;7.33;7.33;;;;;29.11;56.35;-19977.59;4914882;28;45618;-80
2023/06/19 09:39:38;;;;;;;;;10.00;7.67;;;;;29.97;52.49;-19999.69;4912836;28;46039;-81
2023/06/19 09:42:06;;;;;;;;;8.00;8.00;;;;;30.13;51.72;-20003.78;4911613;28;45460;-80
2023/06/19 09:44:39;;;;;;;;;8.00;8.00;;;;;30.23;50.94;-20006.28;4905820;28;45465;-80
2023/06/19 09:47:21;;;;;;;;;8.33;7.33;;;;;30.39;51.23;-20010.34;4907318;28;45471;-81
2023/06/19 09:49:54;;;;;;;;;11.00;10.33;;;;;30.43;50.50;-20011.53;4911422;28;46119;-80
2023/06/19 09:52:24;;;;;;;;;9.67;9.00;;;;;30.26;51.26;-20007.19;4904551;28;45526;-81
2023/06/19 09:54:51;;;;;;;;;8.00;8.00;;;;;30.17;51.45;-20004.69;4905466;28;45503;-80
2023/06/19 09:57:16;;;;;;;;;9.00;8.00;;;;;29.96;50.84;-19999.31;4912322;28;45459;-80
2023/06/19 09:59:43;;;;;;;;;3.67;3.67;;;;;29.79;50.69;-19995.09;4914123;28;47088;-80
2023/06/19 10:02:10;;;;;;;;;8.00;8.00;;;;;30.24;49.97;-20006.53;4897669;28;45589;-81
2023/06/19 10:04:55;;;;;;;;;6.00;5.33;;;;;30.31;50.37;-20008.25;4914960;28;45528;-81
2023/06/19 10:07:32;;;;;;;;;9.00;9.00;;;;;30.21;49.20;-20005.75;4911583;28;45553;-81
2023/06/19 10:10:00;;;;;;;;;8.00;7.67;;;;;30.41;49.32;-20011.00;4914384;28;47003;-81
2023/06/19 10:12:43;;;;;;;;;10.00;7.67;;;;;30.75;48.94;-20019.56;4915527;28;45438;-79
2023/06/19 10:15:18;;;;;;;;;8.33;7.33;;;;;30.76;47.72;-20019.94;4923438;28;45503;-80
2023/06/19 10:17:52;;;;;;;;;9.33;8.67;;;;;30.79;48.48;-20020.59;4920522;28;46080;-81
2023/06/19 10:20:27;;;;;;;;;8.67;7.33;;;;;31.02;47.14;-20026.50;4912780;28;46948;-81
2023/06/19 10:23:18;;;;;;;;;8.00;7.00;;;;;31.80;46.01;-20046.59;4900270;28;45525;-83
2023/06/19 10:25:53;;;;;;;;;9.00;8.00;;;;;32.34;44.88;-19373.53;4905729;28;45923;-82
2023/06/19 10:28:28;;;;;;;;;8.00;7.33;;;;;32.04;45.17;-19023.63;4928090;28;45504;-83
2023/06/19 10:31:02;;;;;;;;;7.00;7.00;;;;;31.96;45.02;-18337.03;4916929;28;47612;-82
2023/06/19 10:33:30;;;;;;;;;7.33;6.33;;;;;32.22;45.53;-18343.03;4913748;28;45989;-83
2023/06/19 10:35:56;;;;;;;;;74.75;65.00;;;;;32.66;44.30;-18695.75;4912872;28;45486;-84
2023/06/19 10:38:21;;;;;;;;;5.33;5.33;;;;;33.03;43.04;-18018.56;4916433;28;45459;-83
2023/06/19 10:40:47;;;;;;;;;5.67;5.67;;;;;33.40;42.59;-16310.41;4910097;28;46290;-83
2023/06/19 10:43:20;;;;;;;;;6.00;6.00;;;;;34.07;40.74;-14260.75;4917407;28;45432;-82
2023/06/19 10:45:45;;;;;;;;;5.00;5.00;;;;;34.40;41.75;-13922.03;4917683;28;45500;-81
2023/06/19 10:48:11;;;;;;;;;7.00;7.00;;;;;34.88;39.27;-11862.91;4917710;28;46492;-82
2023/06/19 10:50:41;;;;;;;;;6.00;6.00;;;;;34.60;39.58;-9792.38;4915661;28;45982;-82
2023/06/19 10:53:07;;;;;;;;;5.67;5.00;;;;;34.60;39.11;-7034.72;4915760;28;45499;-81
2023/06/19 10:55:32;;;;;;;;;7.00;6.00;;;;;34.42;39.68;-5999.47;4917210;28;45791;-82
2023/06/19 10:57:57;;;;;;;;;6.00;4.33;;;;;34.10;40.49;-4964.19;4916249;28;45471;-81
2023/06/19 11:00:28;;;;;;;;;6.00;5.33;;;;;33.48;40.36;-4274.13;4913738;28;45528;-81
2023/06/19 11:03:21;;;;;;;;;7.67;6.33;;;;;32.87;41.00;-3585.25;4912276;28;45501;-82
2023/06/19 11:05:47;;;;;;;;;5.33;5.00;;;;;33.34;41.61;-4618.41;4915363;28;45694;-81
2023/06/19 11:08:25;;;;;;;;;6.67;6.67;;;;;33.28;40.89;-3585.16;4917477;28;45527;-84
2023/06/19 11:10:55;;;;;;;;;5.00;5.00;;;;;33.88;40.04;-2895.44;4913841;28;47037;-81
2023/06/19 11:13:20;;;;;;;;;6.00;6.00;;;;;33.98;40.19;-2550.41;4909960;28;45470;-81
2023/06/19 11:15:49;;;;;;;;;6.33;5.67;;;;;34.16;39.21;-1514.94;4913103;28;45571;-82
2023/06/19 11:18:16;;;;;;;;;9.00;7.67;;;;;34.24;39.07;-824.31;4918517;28;45603;-82
2023/06/19 11:20:50;;;;;;;;;6.00;5.00;;;;;34.36;38.77;212.19;4915025;28;47467;-82
2023/06/19 11:23:26;;;;;;;;;8.33;7.00;;;;;34.31;38.51;1247.94;4916778;28;45463;-81
2023/06/19 11:25:52;;;;;;;;;5.00;5.00;;;;;34.22;38.82;1592.66;4914407;28;45979;-81
2023/06/19 11:28:22;;;;;;;;;6.33;5.00;;;;;33.72;38.98;3314.56;4910872;28;45526;-82
2023/06/19 11:30:49;;;;;;;;;10.33;9.00;;;;;33.60;39.29;3658.44;4917686;28;47033;-81
2023/06/19 11:33:16;;;;;;;;;9.00;8.00;;;;;33.20;40.00;5379.44;4915335;28;45542;-81
2023/06/19 11:35:47;;;;;;;;;10.00;8.00;;;;;32.74;41.09;4338.19;4918836;28;45450;-81
2023/06/19 11:38:17;;;;;;;;;7.33;7.33;;;;;32.53;40.74;6749.38;4917751;28;45536;-80
2023/06/19 11:40:43;;;;;;;;;8.00;8.00;;;;;32.12;41.39;5708.69;4912375;28;46297;-82
2023/06/19 11:43:08;;;;;;;;;7.00;7.00;;;;;32.03;41.83;6396.56;4900250;28;45554;-81
2023/06/19 11:45:44;;;;;;;;;8.00;7.33;;;;;31.61;42.62;6045.50;4916380;28;45861;-82
2023/06/19 11:48:11;;;;;;;;;7.00;7.00;;;;;31.55;43.25;5011.63;4915267;28;45784;-81